createdAt,value
2023-03-03T00:02:03.385Z,97503.84
2023-03-03T00:04:31.679Z,97497.97
2023-03-03T00:07:00.504Z,97498.84
2023-03-03T00:09:28.536Z,97495.75
2023-03-03T00:11:58.973Z,97496.41
2023-03-03T00:14:30.934Z,97500.63
2023-03-03T00:17:04.543Z,97498.09
2023-03-03T00:19:39.180Z,97497.97
2023-03-03T00:22:18.626Z,97500.47
2023-03-03T00:24:47.498Z,97490.53
2023-03-03T00:27:24.458Z,97496.53
2023-03-03T00:29:56.847Z,97508.69
2023-03-03T00:32:28.031Z,97503.59
2023-03-03T00:34:57.634Z,97505.25
2023-03-03T00:37:31.602Z,97509.59
2023-03-03T00:40:14.633Z,97503.28
2023-03-03T00:42:43.226Z,97501.66
2023-03-03T00:45:27.331Z,97501.59
2023-03-03T00:47:57.358Z,97502.84
2023-03-03T00:50:34.776Z,97496.53
2023-03-03T00:53:05.868Z,97487.75
2023-03-03T00:55:35.113Z,97493.63
2023-03-03T00:58:03.469Z,97500.91
2023-03-03T01:00:37.419Z,97501.88
2023-03-03T01:03:11.432Z,97498.63
2023-03-03T01:05:39.797Z,97491.59
2023-03-03T01:08:08.531Z,97495.75
2023-03-03T01:10:41.236Z,97492.94
2023-03-03T01:13:10.238Z,97495.97
2023-03-03T01:15:40.855Z,97490.03
2023-03-03T01:18:10.817Z,97509.16
2023-03-03T01:20:39.295Z,97493.50
2023-03-03T01:23:07.808Z,97499.66
2023-03-03T01:25:36.122Z,97499.22
2023-03-03T01:28:04.867Z,97501.00
2023-03-03T01:30:33.418Z,97500.56
2023-03-03T01:33:01.810Z,97501.41
2023-03-03T01:35:31.283Z,97504.69
2023-03-03T01:38:00.112Z,97502.88
2023-03-03T01:40:31.875Z,97502.00
2023-03-03T01:43:01.030Z,97502.84
2023-03-03T01:45:31.222Z,97507.13
2023-03-03T01:48:03.087Z,97507.03
2023-03-03T01:50:42.813Z,97505.28
2023-03-03T01:53:16.713Z,97495.00
2023-03-03T01:55:46.799Z,97502.34
2023-03-03T01:58:18.290Z,97500.34
2023-03-03T02:00:51.666Z,97501.31
2023-03-03T02:03:23.441Z,97502.06
2023-03-03T02:05:56.932Z,97496.34
2023-03-03T02:08:31.678Z,97487.03
2023-03-03T02:11:00.191Z,97490.06
2023-03-03T02:13:28.481Z,97486.34
2023-03-03T02:15:59.251Z,97483.03
2023-03-03T02:18:28.770Z,97491.81
2023-03-03T02:21:05.232Z,97492.75
2023-03-03T02:23:39.767Z,97492.59
2023-03-03T02:26:14.931Z,97493.63
2023-03-03T02:28:44.262Z,97491.06
2023-03-03T02:31:17.393Z,97488.50
2023-03-03T02:33:47.950Z,97487.72
2023-03-03T02:36:18.444Z,97485.09
2023-03-03T02:38:52.969Z,97490.47
2023-03-03T02:41:30.658Z,97497.50
2023-03-03T02:44:02.988Z,97488.34
2023-03-03T02:46:35.700Z,97487.69
2023-03-03T02:49:04.843Z,97486.03
2023-03-03T02:51:33.920Z,97488.53
2023-03-03T02:54:02.220Z,97495.22
2023-03-03T02:56:34.995Z,97488.41
2023-03-03T02:59:03.093Z,97482.09
2023-03-03T03:01:37.249Z,97487.19
2023-03-03T03:04:11.310Z,97483.88
2023-03-03T03:06:44.178Z,97481.34
2023-03-03T03:09:14.541Z,97487.47
2023-03-03T03:11:45.229Z,97487.19
2023-03-03T03:14:16.079Z,97488.03
2023-03-03T03:16:45.234Z,97491.41
2023-03-03T03:19:13.405Z,97487.84
2023-03-03T03:21:42.086Z,97495.25
2023-03-03T03:24:11.768Z,97503.28
2023-03-03T03:26:46.355Z,97499.19
2023-03-03T03:29:15.700Z,97504.13
2023-03-03T03:31:45.004Z,97499.06
2023-03-03T03:34:13.268Z,97501.13
2023-03-03T03:36:41.605Z,97511.16
2023-03-03T03:39:10.437Z,97508.50
2023-03-03T03:41:43.275Z,97502.63
2023-03-03T03:44:13.079Z,97504.91
2023-03-03T03:46:41.251Z,97510.69
2023-03-03T03:49:09.593Z,97511.56
2023-03-03T03:51:41.338Z,97501.22
2023-03-03T03:54:11.372Z,97500.41
2023-03-03T03:56:40.401Z,97498.72
2023-03-03T03:59:09.438Z,97507.16
2023-03-03T04:01:40.234Z,97509.47
2023-03-03T04:04:08.252Z,97503.34
2023-03-03T04:06:36.559Z,97498.34
2023-03-03T04:09:06.929Z,97494.38
2023-03-03T04:11:35.171Z,97502.19
2023-03-03T04:14:05.827Z,97511.63
2023-03-03T04:16:35.381Z,97504.03
2023-03-03T04:19:05.804Z,97510.00
2023-03-03T04:21:36.443Z,97518.34
2023-03-03T04:24:04.619Z,97513.81
2023-03-03T04:26:33.503Z,97519.78
2023-03-03T04:29:04.022Z,97524.09
2023-03-03T04:31:32.660Z,97522.75
2023-03-03T04:34:01.954Z,97531.41
2023-03-03T04:36:32.735Z,97530.63
2023-03-03T04:39:01.414Z,97526.56
2023-03-03T04:41:29.535Z,97532.72
2023-03-03T04:43:57.804Z,97530.81
2023-03-03T04:46:26.065Z,97528.47
2023-03-03T04:48:55.503Z,97531.88
2023-03-03T04:51:24.372Z,97541.47
2023-03-03T04:53:54.309Z,97550.63
2023-03-03T04:56:23.106Z,97555.72
2023-03-03T04:58:51.502Z,97547.94
2023-03-03T05:01:19.775Z,97552.09
2023-03-03T05:03:48.483Z,97556.06
2023-03-03T05:06:18.803Z,97541.59
2023-03-03T05:08:47.168Z,97547.75
2023-03-03T05:11:16.953Z,97538.03
2023-03-03T05:13:46.085Z,97534.72
2023-03-03T05:16:15.599Z,97537.28
2023-03-03T05:18:43.685Z,97538.94
2023-03-03T05:21:12.151Z,97544.16
2023-03-03T05:23:40.384Z,97543.28
2023-03-03T05:26:08.482Z,97551.59
2023-03-03T05:28:38.108Z,97546.63
2023-03-03T05:31:06.477Z,97540.75
2023-03-03T05:33:34.725Z,97537.28
2023-03-03T05:36:03.412Z,97539.66
2023-03-03T05:38:31.405Z,97535.38
2023-03-03T05:40:59.684Z,97537.78
2023-03-03T05:43:28.418Z,97536.06
2023-03-03T05:46:00.961Z,97535.09
2023-03-03T05:48:29.334Z,97537.44
2023-03-03T05:50:59.783Z,97533.84
2023-03-03T05:53:28.158Z,97537.22
2023-03-03T05:55:56.921Z,97537.22
2023-03-03T05:58:25.683Z,97535.78
2023-03-03T06:00:53.874Z,97539.16
2023-03-03T06:03:23.517Z,97538.53
2023-03-03T06:05:51.933Z,97535.25
2023-03-03T06:08:20.283Z,97542.84
2023-03-03T06:10:48.837Z,97538.00
2023-03-03T06:13:17.707Z,97539.72
2023-03-03T06:15:46.090Z,97533.06
2023-03-03T06:18:14.401Z,97546.28
2023-03-03T06:20:44.202Z,97546.09
2023-03-03T06:23:12.930Z,97541.88
2023-03-03T06:25:40.923Z,97537.50
2023-03-03T06:28:08.941Z,97545.16
2023-03-03T06:30:37.041Z,97548.91
2023-03-03T06:33:05.211Z,97552.34
2023-03-03T06:35:33.257Z,97553.03
2023-03-03T06:38:02.803Z,97562.97
2023-03-03T06:40:32.085Z,97565.09
2023-03-03T06:43:02.439Z,97556.72
2023-03-03T06:45:30.672Z,97566.28
2023-03-03T06:47:58.828Z,97568.69
2023-03-03T06:50:26.940Z,97576.16
2023-03-03T06:53:06.577Z,97589.53
2023-03-03T06:55:35.213Z,97592.81
2023-03-03T06:58:04.378Z,97589.94
2023-03-03T07:00:32.664Z,97590.63
2023-03-03T07:03:02.824Z,97594.34
2023-03-03T07:05:31.167Z,97595.44
2023-03-03T07:07:59.519Z,97590.00
2023-03-03T07:10:31.462Z,97583.13
2023-03-03T07:13:12.133Z,97579.06
2023-03-03T07:15:40.212Z,97580.81
2023-03-03T07:18:26.767Z,97584.84
2023-03-03T07:20:55.036Z,97587.19
2023-03-03T07:23:26.526Z,97596.44
2023-03-03T07:25:56.571Z,97583.97
2023-03-03T07:28:27.192Z,97586.72
2023-03-03T07:30:57.360Z,97583.84
2023-03-03T07:33:28.354Z,97595.72
2023-03-03T07:35:58.504Z,97591.88
2023-03-03T07:38:37.196Z,97594.63
2023-03-03T07:41:13.698Z,97603.97
2023-03-03T07:43:49.585Z,97617.34
2023-03-03T07:46:29.191Z,97612.44
2023-03-03T07:48:58.750Z,97621.50
2023-03-03T07:51:29.306Z,97617.59
2023-03-03T07:54:18.962Z,97624.84
2023-03-03T07:56:49.034Z,97609.81
2023-03-03T07:59:22.374Z,97626.41
2023-03-03T08:02:29.584Z,97619.78
2023-03-03T08:04:57.732Z,97617.28
2023-03-03T08:07:26.156Z,97616.44
2023-03-03T08:10:00.211Z,97618.56
2023-03-03T08:12:43.063Z,97626.66
2023-03-03T08:15:26.288Z,97614.66
2023-03-03T08:17:57.120Z,97611.22
2023-03-03T08:20:45.056Z,97609.75
2023-03-03T08:23:14.294Z,97611.69
2023-03-03T08:25:43.803Z,97614.66
2023-03-03T08:28:14.168Z,97610.44
2023-03-03T08:30:43.650Z,97618.66
2023-03-03T08:33:12.151Z,97615.78
2023-03-03T08:35:40.424Z,97622.56
2023-03-03T08:38:09.495Z,97624.50
2023-03-03T08:40:38.228Z,97626.59
2023-03-03T08:43:06.838Z,97623.72
2023-03-03T08:45:37.276Z,97629.38
2023-03-03T08:48:06.390Z,97627.13
2023-03-03T08:50:34.809Z,97616.78
2023-03-03T08:53:02.992Z,97615.16
2023-03-03T08:55:31.803Z,97602.50
2023-03-03T08:58:00.284Z,97610.88
2023-03-03T09:00:28.965Z,97617.59
2023-03-03T09:02:58.881Z,97608.50
2023-03-03T09:05:27.885Z,97610.16
2023-03-03T09:07:56.690Z,97603.59
2023-03-03T09:10:29.492Z,97604.66
2023-03-03T09:13:01.274Z,97594.00
2023-03-03T09:15:31.007Z,97594.50
2023-03-03T09:18:06.956Z,97607.44
2023-03-03T09:20:41.149Z,97619.69
2023-03-03T09:23:36.643Z,97623.75
2023-03-03T09:26:27.018Z,97625.41
2023-03-03T09:28:57.673Z,97635.66
2023-03-03T09:31:28.832Z,97641.50
2023-03-03T09:33:59.505Z,97651.44
2023-03-03T09:36:30.455Z,97652.34
2023-03-03T09:38:59.714Z,97651.03
2023-03-03T09:41:48.533Z,97664.03
2023-03-03T09:44:31.773Z,97665.09
2023-03-03T09:47:18.096Z,97665.34
2023-03-03T09:50:01.429Z,97664.41
2023-03-03T09:52:42.507Z,97666.34
2023-03-03T09:55:29.620Z,97670.03
2023-03-03T09:58:12.849Z,97669.47
2023-03-03T10:00:48.937Z,97675.03
2023-03-03T10:03:54.252Z,97674.28
2023-03-03T10:06:30.354Z,97675.03
2023-03-03T10:09:33.297Z,97677.13
2023-03-03T10:12:09.207Z,97675.34
2023-03-03T10:14:51.880Z,97666.88
2023-03-03T10:17:30.792Z,97668.38
2023-03-03T10:20:13.240Z,97671.16
2023-03-03T10:22:51.832Z,97674.50
2023-03-03T10:25:30.686Z,97673.50
2023-03-03T10:28:30.504Z,97673.13
2023-03-03T10:31:15.503Z,97676.38
2023-03-03T10:33:54.560Z,97666.22
2023-03-03T10:36:35.831Z,97668.69
2023-03-03T10:39:34.979Z,97673.31
2023-03-03T10:42:16.816Z,97660.53
2023-03-03T10:45:06.693Z,97664.09
2023-03-03T10:47:51.774Z,97659.38
2023-03-03T10:50:25.187Z,97662.88
2023-03-03T10:52:58.965Z,97655.81
2023-03-03T10:55:39.543Z,97656.94
2023-03-03T10:58:22.618Z,97661.28
2023-03-03T11:00:58.452Z,97659.84
2023-03-03T11:04:07.708Z,97667.69
2023-03-03T11:06:46.659Z,97671.41
2023-03-03T11:09:39.210Z,97662.88
2023-03-03T11:12:17.478Z,97665.88
2023-03-03T11:14:53.047Z,97659.38
2023-03-03T11:17:27.890Z,97666.03
2023-03-03T11:20:05.071Z,97652.31
2023-03-03T11:22:40.828Z,97658.69
2023-03-03T11:25:23.757Z,97661.19
2023-03-03T11:28:10.787Z,97658.28
2023-03-03T11:31:01.453Z,97653.75
2023-03-03T11:33:37.769Z,97662.03
2023-03-03T11:36:13.461Z,97658.09
2023-03-03T11:38:49.600Z,97655.19
2023-03-03T11:41:34.271Z,97653.94
2023-03-03T11:44:12.301Z,97658.34
2023-03-03T11:46:47.820Z,97650.19
2023-03-03T11:49:23.599Z,97642.38
2023-03-03T11:52:01.790Z,97651.72
2023-03-03T11:54:35.461Z,97651.44
2023-03-03T11:57:19.946Z,97652.03
2023-03-03T12:00:08.500Z,97654.97
2023-03-03T12:03:15.588Z,97642.78
2023-03-03T12:05:56.375Z,97633.34
2023-03-03T12:08:44.055Z,97639.69
2023-03-03T12:11:23.186Z,97639.16
2023-03-03T12:13:57.844Z,97629.69
2023-03-03T12:16:40.757Z,97624.66
2023-03-03T12:19:20.636Z,97629.94
2023-03-03T12:22:06.457Z,97631.97
2023-03-03T12:24:46.733Z,97630.16
2023-03-03T12:27:24.043Z,97625.44
2023-03-03T12:30:06.670Z,97617.09
2023-03-03T12:32:57.034Z,97609.78
2023-03-03T12:35:36.562Z,97609.66
2023-03-03T12:38:14.819Z,97608.00
2023-03-03T12:40:53.865Z,97617.75
2023-03-03T12:43:36.739Z,97609.63
2023-03-03T12:46:12.436Z,97613.84
2023-03-03T12:48:43.687Z,97605.47
2023-03-03T12:51:23.071Z,97603.91
2023-03-03T12:54:12.360Z,97598.34
2023-03-03T12:56:45.919Z,97606.84
2023-03-03T12:59:20.848Z,97605.13
2023-03-03T13:02:03.864Z,97595.78
2023-03-03T13:04:38.787Z,97598.13
2023-03-03T13:07:16.271Z,97605.44
2023-03-03T13:10:04.068Z,97610.31
2023-03-03T13:12:41.920Z,97604.25
2023-03-03T13:15:24.847Z,97609.94
2023-03-03T13:18:04.782Z,97606.13
2023-03-03T13:20:43.831Z,97606.34
2023-03-03T13:23:20.452Z,97601.38
2023-03-03T13:25:56.750Z,97596.44
2023-03-03T13:28:32.773Z,97589.72
2023-03-03T13:31:08.662Z,97593.63
2023-03-03T13:33:37.922Z,97592.56
2023-03-03T13:36:10.503Z,97589.44
2023-03-03T13:38:43.844Z,97585.50
2023-03-03T13:41:22.398Z,97586.09
2023-03-03T13:43:56.196Z,97580.09
2023-03-03T13:46:38.971Z,97584.09
2023-03-03T13:49:37.065Z,97579.47
2023-03-03T13:52:09.192Z,97585.66
2023-03-03T13:54:49.384Z,97589.06
2023-03-03T13:57:31.593Z,97586.97
2023-03-03T14:00:13.679Z,97592.50
2023-03-03T14:02:55.660Z,97585.88
2023-03-03T14:05:30.176Z,97581.72
2023-03-03T14:08:01.147Z,97579.66
2023-03-03T14:10:33.389Z,97579.31
2023-03-03T14:13:07.616Z,97574.84
2023-03-03T14:15:40.020Z,97575.97
2023-03-03T14:18:23.120Z,97574.66
2023-03-03T14:20:54.084Z,97571.09
2023-03-03T14:23:28.841Z,97567.97
2023-03-03T14:26:08.446Z,97565.28
2023-03-03T14:28:44.228Z,97567.97
2023-03-03T14:31:23.463Z,97562.59
2023-03-03T14:34:03.263Z,97565.16
2023-03-03T14:36:34.183Z,97562.72
2023-03-03T14:39:02.682Z,97566.84
2023-03-03T14:41:41.738Z,97564.97
2023-03-03T14:44:29.757Z,97564.97
2023-03-03T14:47:18.493Z,97567.94
2023-03-03T14:49:46.941Z,97570.44
2023-03-03T14:52:26.054Z,97564.19
2023-03-03T14:54:56.435Z,97567.84
2023-03-03T14:57:46.518Z,97566.13
2023-03-03T15:00:36.343Z,97558.06
2023-03-03T15:03:23.316Z,97556.59
2023-03-03T15:05:52.812Z,97555.88
2023-03-03T15:08:31.961Z,97564.66
2023-03-03T15:11:15.015Z,97561.97
2023-03-03T15:13:43.364Z,97559.47
2023-03-03T15:16:19.598Z,97559.75
2023-03-03T15:19:19.755Z,97566.69
2023-03-03T15:22:00.881Z,97562.22
2023-03-03T15:24:39.494Z,97564.09
2023-03-03T15:27:15.552Z,97575.22
2023-03-03T15:29:57.028Z,97562.63
2023-03-03T15:32:31.312Z,97566.03
2023-03-03T15:35:13.913Z,97566.84
2023-03-03T15:37:50.810Z,97565.66
2023-03-03T15:40:28.549Z,97564.94
2023-03-03T15:43:05.773Z,97562.94
2023-03-03T15:45:40.630Z,97560.53
2023-03-03T15:48:35.633Z,97567.47
2023-03-03T15:51:10.471Z,97553.97
2023-03-03T15:54:02.373Z,97556.56
2023-03-03T15:56:38.774Z,97551.34
2023-03-03T15:59:42.347Z,97556.53
2023-03-03T16:02:17.954Z,97546.56
2023-03-03T16:04:56.148Z,97543.22
2023-03-03T16:07:37.337Z,97539.88
2023-03-03T16:10:20.912Z,97544.16
2023-03-03T16:13:00.409Z,97543.50
2023-03-03T16:15:46.102Z,97541.81
2023-03-03T16:18:24.308Z,97550.53
2023-03-03T16:21:04.977Z,97546.56
2023-03-03T16:23:47.427Z,97551.84
2023-03-03T16:26:28.711Z,97552.75
2023-03-03T16:29:09.624Z,97552.34
2023-03-03T16:31:43.028Z,97553.75
2023-03-03T16:34:18.610Z,97551.91
2023-03-03T16:36:58.468Z,97562.03
2023-03-03T16:39:37.169Z,97557.34
2023-03-03T16:42:13.813Z,97562.50
2023-03-03T16:44:51.042Z,97551.25
2023-03-03T16:47:33.704Z,97555.53
2023-03-03T16:50:15.851Z,97551.41
2023-03-03T16:52:49.820Z,97553.50
2023-03-03T16:55:22.944Z,97557.66
2023-03-03T16:58:04.920Z,97566.19
2023-03-03T17:00:40.038Z,97561.59
2023-03-03T17:03:25.324Z,97563.38
2023-03-03T17:05:58.063Z,97561.03
2023-03-03T17:08:57.924Z,97566.03
2023-03-03T17:11:35.083Z,97559.22
2023-03-03T17:14:28.061Z,97562.50
2023-03-03T17:17:01.509Z,97560.25
2023-03-03T17:19:44.052Z,97568.75
2023-03-03T17:22:19.351Z,97573.88
2023-03-03T17:25:04.042Z,97567.16
2023-03-03T17:27:47.510Z,97573.94
2023-03-03T17:30:22.407Z,97568.94
2023-03-03T17:33:23.219Z,97568.59
2023-03-03T17:36:05.749Z,97564.34
2023-03-03T17:38:49.322Z,97567.94
2023-03-03T17:41:26.888Z,97573.16
2023-03-03T17:44:03.397Z,97575.69
2023-03-03T17:46:37.125Z,97570.88
2023-03-03T17:49:30.094Z,97571.75
2023-03-03T17:52:13.268Z,97569.06
2023-03-03T17:55:10.637Z,97579.94
2023-03-03T17:57:53.598Z,97576.69
2023-03-03T18:00:37.137Z,97579.25
2023-03-03T18:03:40.828Z,97576.97
2023-03-03T18:06:38.072Z,97583.78
2023-03-03T18:09:22.318Z,97582.88
2023-03-03T18:12:05.290Z,97577.47
2023-03-03T18:15:04.263Z,97574.97
2023-03-03T18:17:37.615Z,97582.13
2023-03-03T18:20:36.451Z,97581.09
2023-03-03T18:23:43.605Z,97581.97
2023-03-03T18:26:34.540Z,97579.25
2023-03-03T18:29:22.401Z,97581.75
2023-03-03T18:32:04.606Z,97580.03
2023-03-03T18:34:38.966Z,97581.84
2023-03-03T18:37:12.804Z,97582.78
2023-03-03T18:39:46.727Z,97577.69
2023-03-03T18:42:37.709Z,97578.69
2023-03-03T18:45:51.483Z,97585.44
2023-03-03T18:48:49.414Z,97585.28
2023-03-03T18:52:14.052Z,97586.50
2023-03-03T18:54:42.251Z,97588.88
2023-03-03T18:57:20.628Z,97597.28
2023-03-03T19:00:17.306Z,97587.84
2023-03-03T19:02:55.308Z,97583.47
2023-03-03T19:05:29.021Z,97591.06
2023-03-03T19:08:02.908Z,97584.06
2023-03-03T19:10:50.968Z,97582.28
2023-03-03T19:13:44.692Z,97589.34
2023-03-03T19:16:30.633Z,97594.88
2023-03-03T19:19:02.188Z,97587.16
2023-03-03T19:21:34.474Z,97591.63
2023-03-03T19:24:04.558Z,97595.06
2023-03-03T19:26:51.741Z,97590.03
2023-03-03T19:29:34.758Z,97605.13
2023-03-03T19:32:19.933Z,97599.28
2023-03-03T19:34:56.001Z,97600.13
2023-03-03T19:37:40.565Z,97598.38
2023-03-03T19:40:21.045Z,97589.03
2023-03-03T19:43:00.593Z,97587.38
2023-03-03T19:45:49.430Z,97582.97
2023-03-03T19:48:26.979Z,97582.78
2023-03-03T19:51:03.264Z,97587.88
2023-03-03T19:53:40.383Z,97580.25
2023-03-03T19:56:29.841Z,97584.31
2023-03-03T19:59:09.607Z,97586.75
2023-03-03T20:01:49.550Z,97588.56
2023-03-03T20:04:38.337Z,97579.41
2023-03-03T20:07:22.786Z,97589.56
2023-03-03T20:10:01.331Z,97590.34
2023-03-03T20:12:54.490Z,97586.91
2023-03-03T20:15:29.526Z,97582.59
2023-03-03T20:18:22.332Z,97578.22
2023-03-03T20:21:00.938Z,97581.66
2023-03-03T20:23:36.819Z,97582.38
2023-03-03T20:26:15.484Z,97584.09
2023-03-03T20:29:22.795Z,97583.44
2023-03-03T20:31:57.946Z,97581.63
2023-03-03T20:34:37.652Z,97572.16
2023-03-03T20:37:10.039Z,97582.38
2023-03-03T20:39:58.956Z,97579.75
2023-03-03T20:42:42.265Z,97575.47
2023-03-03T20:45:23.366Z,97580.56
2023-03-03T20:48:01.424Z,97576.13
2023-03-03T20:50:37.584Z,97568.31
2023-03-03T20:53:18.182Z,97577.69
2023-03-03T20:55:56.104Z,97575.03
2023-03-03T20:58:35.419Z,97563.94
2023-03-03T21:01:07.946Z,97559.88
2023-03-03T21:03:38.502Z,97561.41
2023-03-03T21:06:09.413Z,97561.25
2023-03-03T21:08:53.331Z,97571.44
2023-03-03T21:11:24.082Z,97560.47
2023-03-03T21:13:54.952Z,97550.19
2023-03-03T21:16:36.038Z,97545.13
2023-03-03T21:19:06.431Z,97549.44
2023-03-03T21:21:36.122Z,97545.91
2023-03-03T21:24:04.850Z,97539.91
2023-03-03T21:26:54.470Z,97530.59
2023-03-03T21:29:27.822Z,97525.47
2023-03-03T21:31:57.809Z,97531.38
2023-03-03T21:34:30.090Z,97522.00
2023-03-03T21:37:00.216Z,97524.50
2023-03-03T21:39:31.109Z,97520.28
2023-03-03T21:42:03.009Z,97526.22
2023-03-03T21:44:44.281Z,97517.66
2023-03-03T21:47:15.498Z,97515.06
2023-03-03T21:49:44.559Z,97514.22
2023-03-03T21:52:16.611Z,97520.31
2023-03-03T21:54:45.291Z,97516.03
2023-03-03T21:57:14.169Z,97510.03
2023-03-03T21:59:43.782Z,97514.28
2023-03-03T22:02:11.915Z,97502.34
2023-03-03T22:04:41.249Z,97503.16
2023-03-03T22:07:09.886Z,97509.09
2023-03-03T22:09:39.341Z,97503.25
2023-03-03T22:12:08.628Z,97498.88
2023-03-03T22:14:36.873Z,97497.84
2023-03-03T22:17:06.296Z,97498.63
2023-03-03T22:19:34.909Z,97493.66
2023-03-03T22:22:03.349Z,97493.56
2023-03-03T22:24:32.404Z,97497.91
2023-03-03T22:27:01.030Z,97494.31
2023-03-03T22:29:29.046Z,97495.06
2023-03-03T22:31:57.300Z,97496.78
2023-03-03T22:34:27.225Z,97494.31
2023-03-03T22:36:55.468Z,97487.53
2023-03-03T22:39:23.648Z,97490.91
2023-03-03T22:41:51.883Z,97484.81
2023-03-03T22:44:20.378Z,97494.22
2023-03-03T22:46:48.653Z,97481.25
2023-03-03T22:49:17.072Z,97484.88
2023-03-03T22:51:46.566Z,97493.38
2023-03-03T22:54:14.681Z,97482.06
2023-03-03T22:56:42.854Z,97481.38
2023-03-03T22:59:11.137Z,97474.44
2023-03-03T23:01:39.334Z,97476.25
2023-03-03T23:04:07.661Z,97474.56
2023-03-03T23:06:36.291Z,97468.56
2023-03-03T23:09:06.070Z,97473.56
2023-03-03T23:11:35.002Z,97474.56
2023-03-03T23:14:03.174Z,97469.31
2023-03-03T23:16:31.360Z,97477.91
2023-03-03T23:18:59.502Z,97472.72
2023-03-03T23:21:28.041Z,97469.22
2023-03-03T23:23:56.473Z,97464.94
2023-03-03T23:26:26.223Z,97459.16
2023-03-03T23:28:54.296Z,97462.44
2023-03-03T23:31:22.385Z,97454.72
2023-03-03T23:33:50.385Z,97449.63
2023-03-03T23:36:19.234Z,97446.97
2023-03-03T23:38:47.532Z,97441.91
2023-03-03T23:41:15.881Z,97444.41
2023-03-03T23:43:45.404Z,97434.22
2023-03-03T23:46:13.421Z,97429.16
2023-03-03T23:48:41.825Z,97428.31
2023-03-03T23:51:09.887Z,97431.72
2023-03-03T23:53:37.932Z,97427.28
2023-03-03T23:56:06.813Z,97430.00
2023-03-03T23:58:35.300Z,97424.09
